sensor_id;sensor_type;location;lat;lon;timestamp;P1;durP1;ratioP1;P2;durP2;ratioP2
68866;SDS011;56451;44.804;20.476;2023-05-10T00:01:38;11.93;;;6.88;;
68866;SDS011;56451;44.804;20.476;2023-05-10T00:04:04;11.30;;;5.73;;
68866;SDS011;56451;44.804;20.476;2023-05-10T00:06:30;10.82;;;6.20;;
68866;SDS011;56451;44.804;20.476;2023-05-10T00:08:56;10.05;;;5.35;;
68866;SDS011;56451;44.804;20.476;2023-05-10T00:11:22;8.65;;;5.80;;
68866;SDS011;56451;44.804;20.476;2023-05-10T00:13:48;10.20;;;5.10;;
68866;SDS011;56451;44.804;20.476;2023-05-10T00:16:14;10.57;;;5.13;;
68866;SDS011;56451;44.804;20.476;2023-05-10T00:18:40;9.57;;;4.68;;
68866;SDS011;56451;44.804;20.476;2023-05-10T00:21:06;7.47;;;4.80;;
68866;SDS011;56451;44.804;20.476;2023-05-10T00:23:32;7.10;;;4.80;;
68866;SDS011;56451;44.804;20.476;2023-05-10T00:25:58;8.15;;;5.25;;
68866;SDS011;56451;44.804;20.476;2023-05-10T00:28:24;8.10;;;4.32;;
68866;SDS011;56451;44.804;20.476;2023-05-10T00:30:52;8.88;;;4.00;;
68866;SDS011;56451;44.804;20.476;2023-05-10T00:33:18;8.30;;;4.40;;
68866;SDS011;56451;44.804;20.476;2023-05-10T00:35:44;9.65;;;4.03;;
68866;SDS011;56451;44.804;20.476;2023-05-10T00:38:10;7.28;;;4.57;;
68866;SDS011;56451;44.804;20.476;2023-05-10T00:40:36;6.27;;;4.03;;
68866;SDS011;56451;44.804;20.476;2023-05-10T00:43:05;6.32;;;3.67;;
68866;SDS011;56451;44.804;20.476;2023-05-10T00:45:32;5.97;;;4.22;;
68866;SDS011;56451;44.804;20.476;2023-05-10T00:47:59;6.72;;;4.18;;
68866;SDS011;56451;44.804;20.476;2023-05-10T00:50:27;5.43;;;3.60;;
68866;SDS011;56451;44.804;20.476;2023-05-10T00:52:54;7.37;;;4.20;;
68866;SDS011;56451;44.804;20.476;2023-05-10T00:55:20;6.47;;;3.58;;
68866;SDS011;56451;44.804;20.476;2023-05-10T00:57:47;6.38;;;3.45;;
68866;SDS011;56451;44.804;20.476;2023-05-10T01:00:13;6.38;;;4.05;;
68866;SDS011;56451;44.804;20.476;2023-05-10T01:02:46;5.38;;;3.45;;
68866;SDS011;56451;44.804;20.476;2023-05-10T01:05:12;5.07;;;3.80;;
68866;SDS011;56451;44.804;20.476;2023-05-10T01:07:38;6.30;;;3.95;;
68866;SDS011;56451;44.804;20.476;2023-05-10T01:10:05;5.38;;;3.90;;
68866;SDS011;56451;44.804;20.476;2023-05-10T01:12:32;7.03;;;3.30;;
68866;SDS011;56451;44.804;20.476;2023-05-10T01:15:03;4.82;;;3.70;;
68866;SDS011;56451;44.804;20.476;2023-05-10T01:17:32;5.90;;;3.63;;
68866;SDS011;56451;44.804;20.476;2023-05-10T01:19:58;8.80;;;3.75;;
68866;SDS011;56451;44.804;20.476;2023-05-10T01:39:07;4.97;;;3.60;;
68866;SDS011;56451;44.804;20.476;2023-05-10T01:41:41;5.85;;;3.78;;
68866;SDS011;56451;44.804;20.476;2023-05-10T01:44:20;5.25;;;3.40;;
68866;SDS011;56451;44.804;20.476;2023-05-10T01:47:06;5.93;;;3.58;;
68866;SDS011;56451;44.804;20.476;2023-05-10T01:49:37;8.10;;;3.58;;
68866;SDS011;56451;44.804;20.476;2023-05-10T01:52:10;8.83;;;4.13;;
68866;SDS011;56451;44.804;20.476;2023-05-10T01:54:41;6.03;;;3.70;;
68866;SDS011;56451;44.804;20.476;2023-05-10T01:57:10;5.88;;;3.63;;
68866;SDS011;56451;44.804;20.476;2023-05-10T01:59:40;4.97;;;3.85;;
68866;SDS011;56451;44.804;20.476;2023-05-10T02:02:10;4.88;;;3.45;;
68866;SDS011;56451;44.804;20.476;2023-05-10T02:04:41;4.93;;;3.43;;
68866;SDS011;56451;44.804;20.476;2023-05-10T02:07:08;7.70;;;3.67;;
68866;SDS011;56451;44.804;20.476;2023-05-10T02:09:35;4.97;;;3.30;;
68866;SDS011;56451;44.804;20.476;2023-05-10T02:12:02;5.40;;;3.40;;
68866;SDS011;56451;44.804;20.476;2023-05-10T02:14:32;5.28;;;3.65;;
68866;SDS011;56451;44.804;20.476;2023-05-10T02:17:01;6.53;;;3.20;;
68866;SDS011;56451;44.804;20.476;2023-05-10T02:19:29;6.15;;;3.40;;
68866;SDS011;56451;44.804;20.476;2023-05-10T02:21:58;8.20;;;3.53;;
68866;SDS011;56451;44.804;20.476;2023-05-10T02:24:26;3.92;;;3.28;;
68866;SDS011;56451;44.804;20.476;2023-05-10T02:26:53;4.78;;;3.63;;
68866;SDS011;56451;44.804;20.476;2023-05-10T02:29:24;7.57;;;3.60;;
68866;SDS011;56451;44.804;20.476;2023-05-10T02:31:54;4.65;;;3.80;;
68866;SDS011;56451;44.804;20.476;2023-05-10T02:34:21;6.97;;;3.92;;
68866;SDS011;56451;44.804;20.476;2023-05-10T02:36:48;6.03;;;4.05;;
68866;SDS011;56451;44.804;20.476;2023-05-10T02:39:16;4.60;;;3.58;;
68866;SDS011;56451;44.804;20.476;2023-05-10T02:41:44;6.53;;;4.10;;
68866;SDS011;56451;44.804;20.476;2023-05-10T02:44:13;5.85;;;4.15;;
68866;SDS011;56451;44.804;20.476;2023-05-10T02:46:42;5.03;;;4.00;;
68866;SDS011;56451;44.804;20.476;2023-05-10T02:49:09;4.57;;;3.53;;
68866;SDS011;56451;44.804;20.476;2023-05-10T02:51:35;5.90;;;3.95;;
68866;SDS011;56451;44.804;20.476;2023-05-10T02:54:12;4.87;;;3.67;;
68866;SDS011;56451;44.804;20.476;2023-05-10T02:56:46;6.70;;;4.13;;
68866;SDS011;56451;44.804;20.476;2023-05-10T02:59:15;5.40;;;3.60;;
68866;SDS011;56451;44.804;20.476;2023-05-10T03:01:41;5.20;;;3.97;;
68866;SDS011;56451;44.804;20.476;2023-05-10T03:04:07;6.22;;;3.65;;
68866;SDS011;56451;44.804;20.476;2023-05-10T03:06:33;5.07;;;3.90;;
68866;SDS011;56451;44.804;20.476;2023-05-10T03:09:01;8.13;;;4.03;;
68866;SDS011;56451;44.804;20.476;2023-05-10T03:17:30;8.05;;;4.47;;
68866;SDS011;56451;44.804;20.476;2023-05-10T03:20:08;9.33;;;4.87;;
68866;SDS011;56451;44.804;20.476;2023-05-10T03:22:38;9.50;;;4.63;;
68866;SDS011;56451;44.804;20.476;2023-05-10T03:25:16;7.80;;;5.18;;
68866;SDS011;56451;44.804;20.476;2023-05-10T03:27:46;8.93;;;5.53;;
68866;SDS011;56451;44.804;20.476;2023-05-10T03:30:13;9.35;;;5.35;;
68866;SDS011;56451;44.804;20.476;2023-05-10T03:32:40;9.47;;;5.50;;
68866;SDS011;56451;44.804;20.476;2023-05-10T03:35:09;8.35;;;5.53;;
68866;SDS011;56451;44.804;20.476;2023-05-10T03:37:37;8.52;;;5.70;;
68866;SDS011;56451;44.804;20.476;2023-05-10T03:40:04;9.23;;;5.20;;
68866;SDS011;56451;44.804;20.476;2023-05-10T03:42:38;7.20;;;4.80;;
68866;SDS011;56451;44.804;20.476;2023-05-10T03:45:05;7.73;;;4.60;;
68866;SDS011;56451;44.804;20.476;2023-05-10T03:47:31;8.05;;;4.82;;
68866;SDS011;56451;44.804;20.476;2023-05-10T03:49:58;7.60;;;4.82;;
68866;SDS011;56451;44.804;20.476;2023-05-10T03:52:24;8.90;;;4.97;;
68866;SDS011;56451;44.804;20.476;2023-05-10T03:54:50;11.30;;;5.82;;
68866;SDS011;56451;44.804;20.476;2023-05-10T03:57:16;8.33;;;4.63;;
68866;SDS011;56451;44.804;20.476;2023-05-10T03:59:42;8.10;;;5.28;;
68866;SDS011;56451;44.804;20.476;2023-05-10T04:02:08;9.82;;;5.53;;
68866;SDS011;56451;44.804;20.476;2023-05-10T04:04:35;7.60;;;5.05;;
68866;SDS011;56451;44.804;20.476;2023-05-10T04:07:01;9.13;;;5.90;;
68866;SDS011;56451;44.804;20.476;2023-05-10T04:09:28;8.88;;;5.30;;
68866;SDS011;56451;44.804;20.476;2023-05-10T04:11:54;9.13;;;5.80;;
68866;SDS011;56451;44.804;20.476;2023-05-10T04:14:20;9.85;;;6.22;;
68866;SDS011;56451;44.804;20.476;2023-05-10T04:16:48;10.37;;;6.13;;
68866;SDS011;56451;44.804;20.476;2023-05-10T04:19:14;9.50;;;5.72;;
68866;SDS011;56451;44.804;20.476;2023-05-10T04:21:40;11.52;;;5.95;;
68866;SDS011;56451;44.804;20.476;2023-05-10T04:24:05;10.13;;;6.17;;
68866;SDS011;56451;44.804;20.476;2023-05-10T04:26:31;11.35;;;6.10;;
68866;SDS011;56451;44.804;20.476;2023-05-10T04:28:57;10.95;;;5.95;;
68866;SDS011;56451;44.804;20.476;2023-05-10T04:31:23;10.25;;;6.30;;
68866;SDS011;56451;44.804;20.476;2023-05-10T04:33:49;10.00;;;5.87;;
68866;SDS011;56451;44.804;20.476;2023-05-10T04:36:15;8.77;;;5.82;;
68866;SDS011;56451;44.804;20.476;2023-05-10T04:38:41;10.98;;;5.25;;
68866;SDS011;56451;44.804;20.476;2023-05-10T04:41:08;8.48;;;5.60;;
68866;SDS011;56451;44.804;20.476;2023-05-10T04:43:35;9.27;;;5.90;;
68866;SDS011;56451;44.804;20.476;2023-05-10T04:46:01;9.57;;;6.63;;
68866;SDS011;56451;44.804;20.476;2023-05-10T04:48:27;9.65;;;6.63;;
68866;SDS011;56451;44.804;20.476;2023-05-10T04:50:53;10.90;;;5.78;;
68866;SDS011;56451;44.804;20.476;2023-05-10T04:53:19;9.50;;;5.70;;
68866;SDS011;56451;44.804;20.476;2023-05-10T04:55:45;8.13;;;6.20;;
68866;SDS011;56451;44.804;20.476;2023-05-10T04:58:12;11.52;;;6.05;;
68866;SDS011;56451;44.804;20.476;2023-05-10T05:00:38;10.07;;;6.25;;
68866;SDS011;56451;44.804;20.476;2023-05-10T05:03:04;10.52;;;6.55;;
68866;SDS011;56451;44.804;20.476;2023-05-10T05:05:30;9.63;;;5.93;;
68866;SDS011;56451;44.804;20.476;2023-05-10T05:07:56;9.50;;;5.90;;
68866;SDS011;56451;44.804;20.476;2023-05-10T05:10:22;9.02;;;6.07;;
68866;SDS011;56451;44.804;20.476;2023-05-10T05:12:48;8.10;;;5.70;;
68866;SDS011;56451;44.804;20.476;2023-05-10T05:15:13;10.60;;;6.00;;
68866;SDS011;56451;44.804;20.476;2023-05-10T05:17:42;9.43;;;6.00;;
68866;SDS011;56451;44.804;20.476;2023-05-10T05:20:08;9.00;;;6.25;;
68866;SDS011;56451;44.804;20.476;2023-05-10T05:22:36;8.57;;;5.43;;
68866;SDS011;56451;44.804;20.476;2023-05-10T05:25:02;9.27;;;5.75;;
68866;SDS011;56451;44.804;20.476;2023-05-10T05:27:29;10.15;;;5.70;;
68866;SDS011;56451;44.804;20.476;2023-05-10T05:29:55;9.88;;;6.22;;
68866;SDS011;56451;44.804;20.476;2023-05-10T05:32:22;8.32;;;5.95;;
68866;SDS011;56451;44.804;20.476;2023-05-10T05:34:49;7.70;;;5.53;;
68866;SDS011;56451;44.804;20.476;2023-05-10T05:37:15;10.35;;;5.65;;
68866;SDS011;56451;44.804;20.476;2023-05-10T05:39:42;9.93;;;5.72;;
68866;SDS011;56451;44.804;20.476;2023-05-10T05:42:09;7.38;;;5.18;;
68866;SDS011;56451;44.804;20.476;2023-05-10T05:44:35;10.03;;;5.33;;
68866;SDS011;56451;44.804;20.476;2023-05-10T05:47:01;7.72;;;5.30;;
68866;SDS011;56451;44.804;20.476;2023-05-10T05:49:27;8.95;;;5.05;;
68866;SDS011;56451;44.804;20.476;2023-05-10T05:51:54;6.72;;;4.93;;
68866;SDS011;56451;44.804;20.476;2023-05-10T05:54:20;10.93;;;5.27;;
68866;SDS011;56451;44.804;20.476;2023-05-10T05:56:46;11.05;;;5.50;;
68866;SDS011;56451;44.804;20.476;2023-05-10T05:59:11;7.30;;;4.43;;
68866;SDS011;56451;44.804;20.476;2023-05-10T06:01:38;10.05;;;4.90;;
68866;SDS011;56451;44.804;20.476;2023-05-10T06:04:04;7.47;;;5.10;;
68866;SDS011;56451;44.804;20.476;2023-05-10T06:06:30;11.90;;;6.15;;
68866;SDS011;56451;44.804;20.476;2023-05-10T06:08:57;7.15;;;4.68;;
68866;SDS011;56451;44.804;20.476;2023-05-10T06:11:23;8.60;;;5.10;;
68866;SDS011;56451;44.804;20.476;2023-05-10T06:13:49;8.57;;;5.30;;
68866;SDS011;56451;44.804;20.476;2023-05-10T06:16:15;7.32;;;5.05;;
68866;SDS011;56451;44.804;20.476;2023-05-10T06:18:41;9.40;;;5.22;;
68866;SDS011;56451;44.804;20.476;2023-05-10T06:21:07;9.13;;;5.33;;
68866;SDS011;56451;44.804;20.476;2023-05-10T06:23:33;7.47;;;5.10;;
68866;SDS011;56451;44.804;20.476;2023-05-10T06:25:59;7.20;;;5.00;;
68866;SDS011;56451;44.804;20.476;2023-05-10T06:28:25;6.80;;;5.07;;
68866;SDS011;56451;44.804;20.476;2023-05-10T06:30:51;6.30;;;5.15;;
68866;SDS011;56451;44.804;20.476;2023-05-10T06:33:17;6.95;;;4.82;;
68866;SDS011;56451;44.804;20.476;2023-05-10T06:35:43;8.85;;;5.10;;
68866;SDS011;56451;44.804;20.476;2023-05-10T06:38:09;6.23;;;4.80;;
68866;SDS011;56451;44.804;20.476;2023-05-10T06:40:35;6.70;;;4.93;;
68866;SDS011;56451;44.804;20.476;2023-05-10T06:43:01;9.05;;;5.35;;
68866;SDS011;56451;44.804;20.476;2023-05-10T06:45:27;7.72;;;5.00;;
68866;SDS011;56451;44.804;20.476;2023-05-10T06:47:53;10.20;;;5.10;;
68866;SDS011;56451;44.804;20.476;2023-05-10T06:50:19;8.73;;;4.85;;
68866;SDS011;56451;44.804;20.476;2023-05-10T06:52:44;6.53;;;4.50;;
68866;SDS011;56451;44.804;20.476;2023-05-10T06:55:10;5.88;;;4.43;;
68866;SDS011;56451;44.804;20.476;2023-05-10T06:57:36;7.32;;;4.85;;
68866;SDS011;56451;44.804;20.476;2023-05-10T07:00:02;6.93;;;4.77;;
68866;SDS011;56451;44.804;20.476;2023-05-10T07:02:30;8.98;;;4.93;;
68866;SDS011;56451;44.804;20.476;2023-05-10T07:04:56;6.80;;;4.65;;
68866;SDS011;56451;44.804;20.476;2023-05-10T07:07:22;8.13;;;5.28;;
68866;SDS011;56451;44.804;20.476;2023-05-10T07:09:48;8.23;;;4.40;;
68866;SDS011;56451;44.804;20.476;2023-05-10T07:12:15;5.38;;;4.30;;
68866;SDS011;56451;44.804;20.476;2023-05-10T07:14:41;9.45;;;4.75;;
68866;SDS011;56451;44.804;20.476;2023-05-10T07:17:07;9.52;;;5.40;;
68866;SDS011;56451;44.804;20.476;2023-05-10T07:19:33;7.63;;;5.03;;
68866;SDS011;56451;44.804;20.476;2023-05-10T07:21:59;8.30;;;4.70;;
68866;SDS011;56451;44.804;20.476;2023-05-10T07:24:25;8.18;;;4.95;;
68866;SDS011;56451;44.804;20.476;2023-05-10T07:26:51;7.15;;;5.03;;
68866;SDS011;56451;44.804;20.476;2023-05-10T07:29:17;9.97;;;5.27;;
68866;SDS011;56451;44.804;20.476;2023-05-10T07:31:43;6.97;;;5.38;;
68866;SDS011;56451;44.804;20.476;2023-05-10T07:34:09;6.95;;;4.82;;
68866;SDS011;56451;44.804;20.476;2023-05-10T07:36:35;7.88;;;4.72;;
68866;SDS011;56451;44.804;20.476;2023-05-10T07:39:01;7.13;;;5.10;;
68866;SDS011;56451;44.804;20.476;2023-05-10T07:41:27;7.68;;;4.75;;
68866;SDS011;56451;44.804;20.476;2023-05-10T07:43:53;6.70;;;4.82;;
68866;SDS011;56451;44.804;20.476;2023-05-10T07:46:19;7.87;;;4.97;;
68866;SDS011;56451;44.804;20.476;2023-05-10T07:48:45;14.10;;;5.30;;
68866;SDS011;56451;44.804;20.476;2023-05-10T07:51:11;10.38;;;5.50;;
68866;SDS011;56451;44.804;20.476;2023-05-10T07:53:37;8.23;;;5.88;;
68866;SDS011;56451;44.804;20.476;2023-05-10T07:58:58;8.37;;;4.97;;
68866;SDS011;56451;44.804;20.476;2023-05-10T08:01:25;6.50;;;4.72;;
68866;SDS011;56451;44.804;20.476;2023-05-10T08:03:51;8.82;;;4.63;;
68866;SDS011;56451;44.804;20.476;2023-05-10T08:06:18;7.80;;;5.13;;
68866;SDS011;56451;44.804;20.476;2023-05-10T08:08:45;7.45;;;5.22;;
68866;SDS011;56451;44.804;20.476;2023-05-10T08:11:15;6.93;;;5.23;;
68866;SDS011;56451;44.804;20.476;2023-05-10T08:13:42;7.82;;;4.90;;
68866;SDS011;56451;44.804;20.476;2023-05-10T08:16:08;8.80;;;5.18;;
68866;SDS011;56451;44.804;20.476;2023-05-10T08:18:34;6.53;;;5.10;;
68866;SDS011;56451;44.804;20.476;2023-05-10T08:21:00;5.75;;;4.45;;
68866;SDS011;56451;44.804;20.476;2023-05-10T08:23:25;6.60;;;3.90;;
68866;SDS011;56451;44.804;20.476;2023-05-10T08:25:52;10.40;;;4.35;;
68866;SDS011;56451;44.804;20.476;2023-05-10T08:28:17;7.10;;;4.60;;
68866;SDS011;56451;44.804;20.476;2023-05-10T08:30:43;6.90;;;4.40;;
68866;SDS011;56451;44.804;20.476;2023-05-10T08:33:09;7.03;;;3.85;;
68866;SDS011;56451;44.804;20.476;2023-05-10T08:35:35;6.80;;;4.10;;
68866;SDS011;56451;44.804;20.476;2023-05-10T08:38:01;6.10;;;3.90;;
68866;SDS011;56451;44.804;20.476;2023-05-10T08:40:27;6.38;;;3.90;;
68866;SDS011;56451;44.804;20.476;2023-05-10T08:43:01;8.02;;;4.22;;
68866;SDS011;56451;44.804;20.476;2023-05-10T08:45:33;6.83;;;4.00;;
68866;SDS011;56451;44.804;20.476;2023-05-10T08:48:04;11.00;;;4.20;;
68866;SDS011;56451;44.804;20.476;2023-05-10T08:50:31;6.15;;;4.10;;
68866;SDS011;56451;44.804;20.476;2023-05-10T08:53:00;6.10;;;3.50;;
68866;SDS011;56451;44.804;20.476;2023-05-10T08:55:29;4.88;;;3.47;;
68866;SDS011;56451;44.804;20.476;2023-05-10T08:57:55;6.83;;;3.60;;
68866;SDS011;56451;44.804;20.476;2023-05-10T09:00:21;5.03;;;3.60;;
68866;SDS011;56451;44.804;20.476;2023-05-10T09:02:49;6.50;;;3.42;;
68866;SDS011;56451;44.804;20.476;2023-05-10T09:05:15;6.18;;;3.58;;
68866;SDS011;56451;44.804;20.476;2023-05-10T09:07:43;5.70;;;3.30;;
68866;SDS011;56451;44.804;20.476;2023-05-10T09:10:09;4.13;;;3.40;;
68866;SDS011;56451;44.804;20.476;2023-05-10T09:12:36;6.40;;;4.03;;
68866;SDS011;56451;44.804;20.476;2023-05-10T09:15:03;7.03;;;3.65;;
68866;SDS011;56451;44.804;20.476;2023-05-10T09:17:31;6.40;;;4.05;;
68866;SDS011;56451;44.804;20.476;2023-05-10T09:19:59;4.38;;;3.20;;
68866;SDS011;56451;44.804;20.476;2023-05-10T09:22:27;6.97;;;3.40;;
68866;SDS011;56451;44.804;20.476;2023-05-10T09:27:32;4.38;;;3.53;;
68866;SDS011;56451;44.804;20.476;2023-05-10T09:29:58;3.88;;;3.20;;
68866;SDS011;56451;44.804;20.476;2023-05-10T09:32:43;6.57;;;3.43;;
68866;SDS011;56451;44.804;20.476;2023-05-10T09:35:10;5.18;;;3.40;;
68866;SDS011;56451;44.804;20.476;2023-05-10T09:37:41;5.97;;;3.65;;
68866;SDS011;56451;44.804;20.476;2023-05-10T09:40:12;11.18;;;3.70;;
68866;SDS011;56451;44.804;20.476;2023-05-10T09:42:43;7.00;;;3.60;;
68866;SDS011;56451;44.804;20.476;2023-05-10T09:45:30;8.73;;;3.30;;
68866;SDS011;56451;44.804;20.476;2023-05-10T09:47:57;5.18;;;3.15;;
68866;SDS011;56451;44.804;20.476;2023-05-10T09:50:24;4.47;;;3.17;;
68866;SDS011;56451;44.804;20.476;2023-05-10T09:52:52;4.07;;;3.10;;
68866;SDS011;56451;44.804;20.476;2023-05-10T09:55:24;6.00;;;2.97;;
68866;SDS011;56451;44.804;20.476;2023-05-10T09:58:11;4.30;;;2.95;;
68866;SDS011;56451;44.804;20.476;2023-05-10T10:00:39;7.50;;;3.05;;
68866;SDS011;56451;44.804;20.476;2023-05-10T10:03:07;4.63;;;2.97;;
68866;SDS011;56451;44.804;20.476;2023-05-10T10:05:39;5.30;;;3.03;;
68866;SDS011;56451;44.804;20.476;2023-05-10T10:08:10;4.77;;;2.93;;
68866;SDS011;56451;44.804;20.476;2023-05-10T10:10:37;4.75;;;2.72;;
68866;SDS011;56451;44.804;20.476;2023-05-10T10:13:05;4.20;;;3.20;;
68866;SDS011;56451;44.804;20.476;2023-05-10T10:15:32;5.88;;;3.03;;
68866;SDS011;56451;44.804;20.476;2023-05-10T10:18:01;4.90;;;2.80;;
68866;SDS011;56451;44.804;20.476;2023-05-10T10:20:29;4.57;;;2.90;;
68866;SDS011;56451;44.804;20.476;2023-05-10T10:22:55;4.00;;;2.58;;
68866;SDS011;56451;44.804;20.476;2023-05-10T10:25:21;3.53;;;2.60;;
68866;SDS011;56451;44.804;20.476;2023-05-10T10:36:00;4.55;;;2.88;;
68866;SDS011;56451;44.804;20.476;2023-05-10T10:38:38;4.13;;;2.38;;
68866;SDS011;56451;44.804;20.476;2023-05-10T10:41:40;4.28;;;2.33;;
68866;SDS011;56451;44.804;20.476;2023-05-10T10:49:28;5.78;;;2.42;;
68866;SDS011;56451;44.804;20.476;2023-05-10T10:54:51;6.72;;;2.53;;
68866;SDS011;56451;44.804;20.476;2023-05-10T10:57:19;2.90;;;2.50;;
68866;SDS011;56451;44.804;20.476;2023-05-10T10:59:47;3.87;;;2.40;;
68866;SDS011;56451;44.804;20.476;2023-05-10T11:04:59;4.38;;;2.13;;
68866;SDS011;56451;44.804;20.476;2023-05-10T11:07:26;4.45;;;2.30;;
68866;SDS011;56451;44.804;20.476;2023-05-10T11:09:52;4.47;;;2.30;;
68866;SDS011;56451;44.804;20.476;2023-05-10T11:12:18;4.25;;;2.60;;
68866;SDS011;56451;44.804;20.476;2023-05-10T11:14:49;5.47;;;3.15;;
68866;SDS011;56451;44.804;20.476;2023-05-10T11:17:25;4.15;;;2.15;;
68866;SDS011;56451;44.804;20.476;2023-05-10T11:20:06;2.43;;;2.10;;
68866;SDS011;56451;44.804;20.476;2023-05-10T11:22:51;3.67;;;2.10;;
68866;SDS011;56451;44.804;20.476;2023-05-10T11:25:18;3.30;;;2.38;;
68866;SDS011;56451;44.804;20.476;2023-05-10T11:27:47;5.57;;;2.53;;
68866;SDS011;56451;44.804;20.476;2023-05-10T11:30:13;4.63;;;2.40;;
68866;SDS011;56451;44.804;20.476;2023-05-10T11:32:40;4.03;;;2.43;;
68866;SDS011;56451;44.804;20.476;2023-05-10T11:35:10;6.45;;;2.30;;
68866;SDS011;56451;44.804;20.476;2023-05-10T11:37:37;4.32;;;2.30;;
68866;SDS011;56451;44.804;20.476;2023-05-10T11:40:09;4.22;;;2.45;;
68866;SDS011;56451;44.804;20.476;2023-05-10T11:42:39;3.72;;;2.20;;
68866;SDS011;56451;44.804;20.476;2023-05-10T11:45:05;2.47;;;2.10;;
68866;SDS011;56451;44.804;20.476;2023-05-10T11:47:31;2.70;;;2.30;;
68866;SDS011;56451;44.804;20.476;2023-05-10T11:49:57;5.57;;;2.40;;
68866;SDS011;56451;44.804;20.476;2023-05-10T11:52:24;6.70;;;2.60;;
68866;SDS011;56451;44.804;20.476;2023-05-10T11:54:53;4.73;;;2.53;;
68866;SDS011;56451;44.804;20.476;2023-05-10T11:57:20;5.07;;;2.53;;
68866;SDS011;56451;44.804;20.476;2023-05-10T11:59:54;3.78;;;2.00;;
68866;SDS011;56451;44.804;20.476;2023-05-10T12:02:22;4.07;;;2.40;;
68866;SDS011;56451;44.804;20.476;2023-05-10T12:04:48;4.35;;;2.40;;
68866;SDS011;56451;44.804;20.476;2023-05-10T12:07:16;4.07;;;2.40;;
68866;SDS011;56451;44.804;20.476;2023-05-10T12:10:02;6.65;;;2.30;;
68866;SDS011;56451;44.804;20.476;2023-05-10T12:12:38;6.95;;;2.72;;
68866;SDS011;56451;44.804;20.476;2023-05-10T12:15:10;4.22;;;2.28;;
68866;SDS011;56451;44.804;20.476;2023-05-10T12:17:44;3.03;;;2.22;;
68866;SDS011;56451;44.804;20.476;2023-05-10T12:20:17;4.67;;;2.20;;
68866;SDS011;56451;44.804;20.476;2023-05-10T12:22:49;5.32;;;2.13;;
68866;SDS011;56451;44.804;20.476;2023-05-10T12:25:18;3.42;;;2.38;;
68866;SDS011;56451;44.804;20.476;2023-05-10T12:27:50;2.67;;;2.25;;
68866;SDS011;56451;44.804;20.476;2023-05-10T12:30:24;3.63;;;2.42;;
68866;SDS011;56451;44.804;20.476;2023-05-10T12:32:54;4.87;;;2.60;;
68866;SDS011;56451;44.804;20.476;2023-05-10T12:35:25;3.15;;;2.40;;
68866;SDS011;56451;44.804;20.476;2023-05-10T12:37:51;2.95;;;2.10;;
68866;SDS011;56451;44.804;20.476;2023-05-10T12:40:18;5.25;;;2.55;;
68866;SDS011;56451;44.804;20.476;2023-05-10T12:42:45;5.30;;;2.30;;
68866;SDS011;56451;44.804;20.476;2023-05-10T12:45:11;3.80;;;1.80;;
68866;SDS011;56451;44.804;20.476;2023-05-10T12:47:46;5.07;;;2.20;;
68866;SDS011;56451;44.804;20.476;2023-05-10T12:50:12;3.33;;;1.90;;
68866;SDS011;56451;44.804;20.476;2023-05-10T12:52:38;4.40;;;2.42;;
68866;SDS011;56451;44.804;20.476;2023-05-10T12:55:04;4.77;;;2.20;;
68866;SDS011;56451;44.804;20.476;2023-05-10T12:57:30;5.47;;;2.28;;
68866;SDS011;56451;44.804;20.476;2023-05-10T12:59:56;3.03;;;2.10;;
68866;SDS011;56451;44.804;20.476;2023-05-10T13:02:22;3.87;;;1.97;;
68866;SDS011;56451;44.804;20.476;2023-05-10T13:04:48;3.10;;;2.30;;
68866;SDS011;56451;44.804;20.476;2023-05-10T13:07:15;4.47;;;1.90;;
68866;SDS011;56451;44.804;20.476;2023-05-10T13:09:41;3.33;;;2.00;;
68866;SDS011;56451;44.804;20.476;2023-05-10T13:12:07;4.27;;;2.10;;
68866;SDS011;56451;44.804;20.476;2023-05-10T13:14:33;3.00;;;1.70;;
68866;SDS011;56451;44.804;20.476;2023-05-10T13:16:59;2.38;;;2.00;;
68866;SDS011;56451;44.804;20.476;2023-05-10T13:19:25;4.27;;;2.10;;
68866;SDS011;56451;44.804;20.476;2023-05-10T13:21:51;4.03;;;2.17;;
68866;SDS011;56451;44.804;20.476;2023-05-10T13:24:17;3.88;;;2.38;;
68866;SDS011;56451;44.804;20.476;2023-05-10T13:26:43;4.30;;;2.40;;
68866;SDS011;56451;44.804;20.476;2023-05-10T13:29:09;4.07;;;2.60;;
68866;SDS011;56451;44.804;20.476;2023-05-10T13:31:35;5.60;;;2.63;;
68866;SDS011;56451;44.804;20.476;2023-05-10T13:34:01;3.65;;;2.47;;
68866;SDS011;56451;44.804;20.476;2023-05-10T13:36:28;3.53;;;2.20;;
68866;SDS011;56451;44.804;20.476;2023-05-10T13:38:54;3.92;;;2.22;;
68866;SDS011;56451;44.804;20.476;2023-05-10T13:41:20;3.03;;;2.10;;
68866;SDS011;56451;44.804;20.476;2023-05-10T13:43:46;4.60;;;2.28;;
68866;SDS011;56451;44.804;20.476;2023-05-10T13:46:14;2.30;;;2.00;;
68866;SDS011;56451;44.804;20.476;2023-05-10T13:48:40;4.53;;;2.30;;
68866;SDS011;56451;44.804;20.476;2023-05-10T13:51:06;4.30;;;2.00;;
68866;SDS011;56451;44.804;20.476;2023-05-10T13:53:32;3.60;;;1.98;;
68866;SDS011;56451;44.804;20.476;2023-05-10T13:55:57;6.07;;;2.42;;
68866;SDS011;56451;44.804;20.476;2023-05-10T13:58:24;2.80;;;2.00;;
68866;SDS011;56451;44.804;20.476;2023-05-10T14:00:50;3.10;;;2.23;;
68866;SDS011;56451;44.804;20.476;2023-05-10T14:03:16;3.67;;;2.15;;
68866;SDS011;56451;44.804;20.476;2023-05-10T14:05:42;3.17;;;2.03;;
68866;SDS011;56451;44.804;20.476;2023-05-10T14:08:08;3.77;;;2.30;;
68866;SDS011;56451;44.804;20.476;2023-05-10T14:10:35;6.43;;;2.60;;
68866;SDS011;56451;44.804;20.476;2023-05-10T14:13:02;5.55;;;2.20;;
68866;SDS011;56451;44.804;20.476;2023-05-10T14:15:28;6.82;;;2.70;;
68866;SDS011;56451;44.804;20.476;2023-05-10T14:17:54;2.83;;;1.97;;
68866;SDS011;56451;44.804;20.476;2023-05-10T14:20:20;5.90;;;2.35;;
68866;SDS011;56451;44.804;20.476;2023-05-10T14:22:46;3.28;;;1.67;;
68866;SDS011;56451;44.804;20.476;2023-05-10T14:25:12;2.47;;;1.70;;
68866;SDS011;56451;44.804;20.476;2023-05-10T14:27:39;3.80;;;2.10;;
68866;SDS011;56451;44.804;20.476;2023-05-10T14:30:05;2.83;;;2.22;;
68866;SDS011;56451;44.804;20.476;2023-05-10T14:32:32;3.53;;;1.92;;
68866;SDS011;56451;44.804;20.476;2023-05-10T14:34:57;3.10;;;2.10;;
68866;SDS011;56451;44.804;20.476;2023-05-10T14:37:24;3.80;;;2.08;;
68866;SDS011;56451;44.804;20.476;2023-05-10T14:39:50;5.35;;;2.17;;
68866;SDS011;56451;44.804;20.476;2023-05-10T14:42:16;3.40;;;1.95;;
68866;SDS011;56451;44.804;20.476;2023-05-10T14:44:42;3.85;;;1.95;;
68866;SDS011;56451;44.804;20.476;2023-05-10T14:47:07;5.13;;;1.97;;
68866;SDS011;56451;44.804;20.476;2023-05-10T14:49:33;3.63;;;2.00;;
68866;SDS011;56451;44.804;20.476;2023-05-10T14:51:59;4.40;;;1.80;;
68866;SDS011;56451;44.804;20.476;2023-05-10T14:54:25;3.80;;;2.10;;
68866;SDS011;56451;44.804;20.476;2023-05-10T14:56:52;3.75;;;2.00;;
68866;SDS011;56451;44.804;20.476;2023-05-10T14:59:18;5.03;;;1.90;;
68866;SDS011;56451;44.804;20.476;2023-05-10T15:01:44;5.03;;;2.40;;
68866;SDS011;56451;44.804;20.476;2023-05-10T15:04:09;3.75;;;2.10;;
68866;SDS011;56451;44.804;20.476;2023-05-10T15:06:35;3.90;;;2.03;;
68866;SDS011;56451;44.804;20.476;2023-05-10T15:09:02;4.60;;;1.90;;
68866;SDS011;56451;44.804;20.476;2023-05-10T15:11:31;2.97;;;2.00;;
68866;SDS011;56451;44.804;20.476;2023-05-10T15:13:57;3.42;;;2.22;;
68866;SDS011;56451;44.804;20.476;2023-05-10T15:16:23;3.00;;;1.95;;
68866;SDS011;56451;44.804;20.476;2023-05-10T15:18:49;3.67;;;1.83;;
68866;SDS011;56451;44.804;20.476;2023-05-10T15:21:15;3.45;;;2.13;;
68866;SDS011;56451;44.804;20.476;2023-05-10T15:23:41;3.80;;;2.20;;